Time;durP1;ratioP1;P1;durP2;ratioP2;P2;SDS_P1;SDS_P2;PMS_P1;PMS_P2;Temp;Humidity;BMP_temperature;BMP_pressure;BME280_temperature;BME280_humidity;BME280_pressure;Samples;Min_cycle;Max_cycle;Signal;HPM_P1;HPM_P2
2023/10/04 00:00:53;;;;;;;9.97;9.07;;;12.10;99.90;;;;;;4997612;28;20232;-75
2023/10/04 00:03:21;;;;;;;9.57;8.87;;;12.00;99.90;;;;;;5015445;28;20228;-75
2023/10/04 00:05:48;;;;;;;9.33;8.63;;;12.00;99.90;;;;;;4998170;28;20218;-75
2023/10/04 00:08:15;;;;;;;9.47;8.77;;;12.00;99.90;;;;;;5015157;28;20280;-76
2023/10/04 00:10:44;;;;;;;9.50;8.67;;;12.00;99.90;;;;;;4998678;28;20211;-76
2023/10/04 00:13:13;;;;;;;9.27;8.50;;;11.90;99.90;;;;;;5015135;28;20207;-76
2023/10/04 00:15:39;;;;;;;9.07;8.30;;;11.90;99.90;;;;;;5019030;28;20201;-76
2023/10/04 00:18:07;;;;;;;9.60;8.80;;;11.90;99.90;;;;;;5019320;28;20674;-76
2023/10/04 00:20:34;;;;;;;9.23;8.53;;;11.90;99.90;;;;;;5002413;28;20216;-76
2023/10/04 00:23:04;;;;;;;9.20;8.60;;;11.90;99.90;;;;;;5019555;28;20215;-76
2023/10/04 00:25:31;;;;;;;10.00;9.20;;;11.80;99.90;;;;;;5019612;28;20278;-76
2023/10/04 00:27:59;;;;;;;10.03;9.23;;;11.80;99.90;;;;;;5019731;28;20262;-76
2023/10/04 00:30:27;;;;;;;9.83;9.10;;;11.80;99.90;;;;;;5002023;28;20238;-76
2023/10/04 00:32:55;;;;;;;9.90;9.20;;;11.80;99.90;;;;;;5019590;28;20670;-75
2023/10/04 00:35:23;;;;;;;9.90;9.17;;;11.80;99.90;;;;;;5002211;28;20200;-76
2023/10/04 00:37:55;;;;;;;9.87;9.17;;;11.80;99.90;;;;;;5019517;28;20230;-75
2023/10/04 00:40:24;;;;;;;10.00;9.10;;;11.70;99.90;;;;;;5001807;28;20250;-75
2023/10/04 00:42:53;;;;;;;9.63;8.83;;;11.70;99.90;;;;;;5001745;28;20273;-75
2023/10/04 00:45:24;;;;;;;9.23;8.50;;;11.70;99.90;;;;;;5002112;28;20196;-76
2023/10/04 00:47:56;;;;;;;9.20;8.40;;;11.60;99.90;;;;;;5002066;28;20211;-76
2023/10/04 00:50:26;;;;;;;8.57;7.97;;;11.60;99.90;;;;;;5002241;28;20241;-76
2023/10/04 00:52:57;;;;;;;9.00;8.20;;;11.50;99.90;;;;;;5019732;28;20199;-75
2023/10/04 00:55:24;;;;;;;9.00;8.40;;;11.50;99.90;;;;;;5002179;28;20669;-75
2023/10/04 00:57:54;;;;;;;8.77;8.07;;;11.50;99.90;;;;;;5019155;28;20196;-75
2023/10/04 01:00:22;;;;;;;9.03;8.23;;;11.50;99.90;;;;;;5002448;28;20226;-75
2023/10/04 01:02:49;;;;;;;8.70;8.10;;;11.50;99.90;;;;;;5001623;28;20219;-75
2023/10/04 01:05:18;;;;;;;9.50;8.80;;;11.50;99.90;;;;;;5002674;28;20223;-75
2023/10/04 01:07:47;;;;;;;8.60;8.00;;;11.50;99.90;;;;;;5020208;28;20207;-75
2023/10/04 01:10:16;;;;;;;9.10;8.40;;;11.50;99.90;;;;;;4993920;28;20235;-76
2023/10/04 01:12:44;;;;;;;9.37;8.57;;;11.40;99.90;;;;;;5019644;28;20579;-75
2023/10/04 01:15:30;;;;;;;9.57;8.77;;;11.50;99.90;;;;;;5001550;28;20261;-76
2023/10/04 01:17:59;;;;;;;9.07;8.37;;;11.40;99.90;;;;;;5002315;28;20295;-76
2023/10/04 01:20:27;;;;;;;9.60;8.70;;;11.40;99.90;;;;;;5002051;28;20259;-76
2023/10/04 01:23:00;;;;;;;9.37;8.73;;;11.40;99.90;;;;;;5001100;28;20221;-75
2023/10/04 01:25:28;;;;;;;9.57;8.63;;;11.30;99.90;;;;;;5019575;28;20236;-76
2023/10/04 01:27:55;;;;;;;9.20;8.50;;;11.30;99.90;;;;;;5002350;28;20208;-76
2023/10/04 01:30:22;;;;;;;9.23;8.60;;;11.30;99.90;;;;;;5029094;22;20213;-78
2023/10/04 01:32:51;;;;;;;9.13;8.43;;;11.40;99.90;;;;;;5040709;28;20282;-78
2023/10/04 01:35:22;;;;;;;8.70;8.10;;;11.30;99.90;;;;;;5061171;28;20197;-78
2023/10/04 01:37:49;;;;;;;9.33;8.57;;;11.20;99.90;;;;;;5037831;28;20717;-78
2023/10/04 01:40:19;;;;;;;9.13;8.47;;;11.20;99.90;;;;;;5041922;28;20189;-78
2023/10/04 01:42:46;;;;;;;9.27;8.57;;;11.20;99.90;;;;;;5040939;28;20200;-78
2023/10/04 01:45:21;;;;;;;9.23;8.43;;;11.20;99.90;;;;;;5040426;28;20295;-78
2023/10/04 01:47:49;;;;;;;9.27;8.57;;;11.20;99.90;;;;;;5036173;28;20208;-79
2023/10/04 01:50:16;;;;;;;8.80;8.20;;;11.20;99.90;;;;;;5048743;28;20283;-78
2023/10/04 01:52:49;;;;;;;9.57;8.77;;;11.20;99.90;;;;;;5047521;28;20200;-78
2023/10/04 01:55:18;;;;;;;9.07;8.37;;;11.20;99.90;;;;;;5033969;28;20260;-78
2023/10/04 01:57:46;;;;;;;9.07;8.47;;;11.20;99.90;;;;;;5036818;28;20248;-78
2023/10/04 02:00:16;;;;;;;9.00;8.40;;;11.20;99.90;;;;;;5041184;28;20203;-78
2023/10/04 02:02:44;;;;;;;9.60;8.90;;;11.20;99.90;;;;;;5049791;28;20295;-79
2023/10/04 02:05:15;;;;;;;9.60;8.90;;;11.20;99.90;;;;;;5037532;28;20197;-79
2023/10/04 02:07:43;;;;;;;9.60;8.90;;;11.10;99.90;;;;;;5038657;28;20212;-78
2023/10/04 02:10:12;;;;;;;9.97;9.17;;;11.10;99.90;;;;;;5040106;28;20667;-78
2023/10/04 02:12:41;;;;;;;10.00;9.20;;;11.10;99.90;;;;;;5042835;28;20289;-78
2023/10/04 02:15:14;;;;;;;10.33;9.53;;;11.10;99.90;;;;;;5035451;28;20198;-78
2023/10/04 02:17:43;;;;;;;10.23;9.23;;;11.10;99.90;;;;;;5038635;28;20581;-78
2023/10/04 02:20:13;;;;;;;9.87;9.17;;;11.10;99.90;;;;;;5032994;28;20197;-78
2023/10/04 02:22:40;;;;;;;9.80;9.10;;;11.00;99.90;;;;;;5036868;28;20659;-78
2023/10/04 02:25:12;;;;;;;9.83;8.97;;;10.90;99.90;;;;;;5038757;28;20768;-78
2023/10/04 02:27:41;;;;;;;9.87;9.17;;;10.90;99.90;;;;;;5045520;28;20215;-78
2023/10/04 02:30:15;;;;;;;9.70;8.93;;;10.90;99.90;;;;;;5044269;28;20196;-78
2023/10/04 02:32:43;;;;;;;9.93;9.20;;;10.80;99.90;;;;;;5040188;28;20214;-78
2023/10/04 02:35:21;;;;;;;9.90;9.10;;;10.80;99.90;;;;;;5037349;28;20231;-78
2023/10/04 02:37:53;;;;;;;9.97;9.23;;;10.70;99.90;;;;;;5036021;28;20197;-78
2023/10/04 02:40:21;;;;;;;10.33;9.60;;;10.70;99.90;;;;;;5039724;28;20222;-78
2023/10/04 02:42:53;;;;;;;10.03;9.30;;;10.60;99.90;;;;;;5035615;28;20200;-78
2023/10/04 02:45:21;;;;;;;10.17;9.37;;;10.60;99.90;;;;;;5041407;28;20191;-78
2023/10/04 02:47:49;;;;;;;10.80;9.90;;;10.60;99.90;;;;;;5040976;28;20200;-78
2023/10/04 02:50:20;;;;;;;9.97;9.13;;;10.50;99.90;;;;;;5037236;28;20262;-83
2023/10/04 02:52:50;;;;;;;10.43;9.63;;;10.60;99.90;;;;;;5032610;28;20561;-81
2023/10/04 02:55:18;;;;;;;9.93;9.23;;;10.60;99.90;;;;;;5042994;28;20289;-81
2023/10/04 02:57:49;;;;;;;9.23;8.53;;;10.50;99.90;;;;;;5046131;28;20209;-81
2023/10/04 03:00:19;;;;;;;9.50;8.90;;;10.50;99.90;;;;;;5051066;28;20201;-81
2023/10/04 03:02:52;;;;;;;9.73;8.93;;;10.50;99.90;;;;;;5051297;28;20576;-81
2023/10/04 03:05:21;;;;;;;10.67;9.87;;;10.40;99.90;;;;;;5050824;28;20314;-81
2023/10/04 03:07:52;;;;;;;10.53;9.80;;;10.40;99.90;;;;;;5050908;28;20254;-81
2023/10/04 03:10:24;;;;;;;9.87;9.13;;;10.30;99.90;;;;;;5050755;28;20245;-81
2023/10/04 03:12:56;;;;;;;10.43;9.67;;;10.20;99.90;;;;;;5051453;28;20229;-81
2023/10/04 03:15:48;;;;;;;10.77;9.97;;;10.20;99.90;;;;;;5046806;28;20303;-83
2023/10/04 03:18:19;;;;;;;9.33;8.60;;;10.20;99.90;;;;;;5044225;28;20664;-81
2023/10/04 03:21:09;;;;;;;9.50;8.80;;;10.20;99.90;;;;;;5039556;28;20749;-82
2023/10/04 03:23:42;;;;;;;9.60;8.90;;;10.10;99.90;;;;;;5051283;28;20220;-81
2023/10/04 03:26:18;;;;;;;10.77;10.03;;;10.10;99.90;;;;;;5048610;28;20266;-80
2023/10/04 03:28:50;;;;;;;9.93;9.27;;;10.10;99.90;;;;;;5040773;28;20199;-81
2023/10/04 03:31:20;;;;;;;9.73;9.03;;;10.00;99.90;;;;;;5033983;28;20234;-78
2023/10/04 03:33:53;;;;;;;10.10;9.30;;;10.00;99.90;;;;;;5036655;28;20192;-77
2023/10/04 03:36:25;;;;;;;10.00;9.30;;;10.00;99.90;;;;;;5037305;28;20199;-77
2023/10/04 03:38:57;;;;;;;9.53;8.83;;;10.00;99.90;;;;;;5038548;28;20211;-77
2023/10/04 03:41:24;;;;;;;10.13;9.23;;;10.00;99.90;;;;;;5039461;28;20702;-77
2023/10/04 03:43:55;;;;;;;10.47;9.67;;;10.00;99.90;;;;;;5034829;28;20662;-77
2023/10/04 03:46:24;;;;;;;9.83;9.13;;;10.00;99.90;;;;;;5039136;28;20215;-77
2023/10/04 03:48:56;;;;;;;9.63;8.93;;;9.90;99.90;;;;;;5040180;28;20638;-77
2023/10/04 03:51:23;;;;;;;10.90;10.10;;;9.90;99.90;;;;;;5036799;28;20227;-77
2023/10/04 03:53:53;;;;;;;11.10;10.30;;;9.90;99.90;;;;;;5039950;28;20193;-77
2023/10/04 03:56:23;;;;;;;11.90;10.80;;;9.90;99.90;;;;;;5050673;28;20284;-77
2023/10/04 03:58:51;;;;;;;11.67;10.77;;;9.90;99.90;;;;;;5039079;28;20598;-77
2023/10/04 04:01:19;;;;;;;12.10;11.00;;;9.90;99.90;;;;;;5047643;28;20654;-77
2023/10/04 04:03:49;;;;;;;11.67;10.67;;;9.90;99.90;;;;;;5042106;28;20223;-77
2023/10/04 04:06:16;;;;;;;11.50;10.50;;;9.90;99.90;;;;;;5039855;28;20192;-78
2023/10/04 04:08:43;;;;;;;11.67;10.80;;;9.80;99.90;;;;;;5040689;28;20211;-78
2023/10/04 04:11:10;;;;;;;11.43;10.63;;;9.80;99.90;;;;;;5041101;28;20230;-78
2023/10/04 04:13:37;;;;;;;10.93;10.13;;;9.80;99.90;;;;;;5039336;28;20559;-78
2023/10/04 04:16:11;;;;;;;10.17;9.40;;;9.70;99.90;;;;;;5047717;28;20204;-78
2023/10/04 04:18:38;;;;;;;10.90;10.10;;;9.70;99.90;;;;;;5042307;28;20220;-79
2023/10/04 04:21:07;;;;;;;11.47;10.57;;;9.60;99.90;;;;;;5042887;28;20269;-77
2023/10/04 04:23:35;;;;;;;10.60;9.90;;;9.60;99.90;;;;;;5051269;28;20188;-76
2023/10/04 04:26:05;;;;;;;11.00;10.20;;;9.60;99.90;;;;;;5051010;28;20195;-79
2023/10/04 04:28:35;;;;;;;10.97;10.17;;;9.50;99.90;;;;;;5050803;28;20199;-79
2023/10/04 04:31:05;;;;;;;10.73;10.00;;;9.50;99.90;;;;;;5044163;28;20222;-79
2023/10/04 04:33:32;;;;;;;10.97;10.17;;;9.50;99.90;;;;;;5038080;28;20200;-76
2023/10/04 04:36:05;;;;;;;10.97;10.03;;;9.50;99.90;;;;;;5045102;28;20203;-76
2023/10/04 04:38:38;;;;;;;10.47;9.77;;;9.50;99.90;;;;;;5041473;28;20288;-76
2023/10/04 04:41:12;;;;;;;10.40;9.60;;;9.50;99.90;;;;;;5041494;28;20686;-76
2023/10/04 04:43:39;;;;;;;10.43;9.73;;;9.40;99.90;;;;;;5037876;28;20196;-76
2023/10/04 04:46:12;;;;;;;10.17;9.40;;;9.40;99.90;;;;;;5038094;28;20291;-75
2023/10/04 04:48:40;;;;;;;11.43;10.53;;;9.40;99.90;;;;;;5052530;28;20206;-76
2023/10/04 04:51:11;;;;;;;10.40;9.70;;;9.30;99.90;;;;;;5042942;28;20318;-75
2023/10/04 04:53:51;;;;;;;10.30;9.60;;;9.20;99.90;;;;;;5063249;28;20217;-75
2023/10/04 04:56:25;;;;;;;10.90;10.10;;;9.20;99.90;;;;;;5041563;28;20190;-76
2023/10/04 04:58:56;;;;;;;10.63;9.83;;;9.20;99.90;;;;;;5043534;28;20314;-76
2023/10/04 05:01:24;;;;;;;12.00;11.00;;;9.20;99.90;;;;;;5049698;28;20276;-76
2023/10/04 05:03:51;;;;;;;9.33;8.53;;;9.20;99.90;;;;;;5040988;28;20286;-76
2023/10/04 05:06:22;;;;;;;14.53;13.17;;;9.20;99.90;;;;;;5036496;28;20202;-76
2023/10/04 05:08:51;;;;;;;13.87;12.47;;;9.10;99.90;;;;;;5039741;28;20207;-76
2023/10/04 05:11:18;;;;;;;12.13;11.07;;;9.10;99.90;;;;;;5036139;28;20224;-76
2023/10/04 05:13:46;;;;;;;10.80;9.90;;;9.10;99.90;;;;;;5038525;28;20192;-76
2023/10/04 05:16:13;;;;;;;9.83;8.83;;;9.10;99.90;;;;;;5037897;28;20203;-76
2023/10/04 05:18:39;;;;;;;14.10;12.73;;;9.20;99.90;;;;;;5036558;28;20196;-76
2023/10/04 05:21:10;;;;;;;10.60;9.60;;;9.10;99.90;;;;;;5039357;28;20223;-77
2023/10/04 05:23:37;;;;;;;7.27;6.00;;;9.10;99.90;;;;;;5040165;28;20203;-77
2023/10/04 05:26:05;;;;;;;6.77;6.10;;;9.10;99.90;;;;;;5048303;28;20268;-77
2023/10/04 05:28:33;;;;;;;7.67;5.80;;;9.10;99.90;;;;;;5037479;28;20338;-76
2023/10/04 05:31:00;;;;;;;7.53;6.00;;;9.20;99.90;;;;;;5038580;28;20227;-77
2023/10/04 05:33:26;;;;;;;7.47;6.23;;;9.20;99.90;;;;;;5038607;28;20249;-77
2023/10/04 05:35:55;;;;;;;8.20;6.67;;;9.20;99.90;;;;;;5046359;28;20191;-76
2023/10/04 05:38:23;;;;;;;7.60;6.13;;;9.10;99.90;;;;;;5036208;28;20206;-77
2023/10/04 05:40:51;;;;;;;11.73;10.80;;;9.10;99.90;;;;;;5045741;28;20211;-77
2023/10/04 05:43:19;;;;;;;9.67;8.97;;;9.10;99.90;;;;;;5036938;28;20222;-77
2023/10/04 05:45:47;;;;;;;9.63;8.90;;;9.10;99.90;;;;;;5038678;28;20216;-77
2023/10/04 05:48:15;;;;;;;10.07;9.27;;;9.10;99.90;;;;;;5042292;28;20199;-77
2023/10/04 05:50:42;;;;;;;10.37;9.57;;;9.10;99.90;;;;;;5039632;28;20234;-77
2023/10/04 05:53:09;;;;;;;9.77;9.00;;;9.20;99.90;;;;;;5048324;28;20608;-76
2023/10/04 05:55:37;;;;;;;11.00;10.13;;;9.20;99.90;;;;;;5043881;28;20192;-77
2023/10/04 05:58:07;;;;;;;11.13;10.13;;;9.20;99.90;;;;;;5047738;28;20230;-77
2023/10/04 06:00:38;;;;;;;10.40;9.70;;;9.30;99.90;;;;;;5051405;28;20285;-77
2023/10/04 06:03:11;;;;;;;6.90;5.73;;;9.40;99.90;;;;;;5050782;28;20573;-77
2023/10/04 06:05:39;;;;;;;6.37;5.40;;;9.50;99.90;;;;;;5054599;28;20203;-78
2023/10/04 06:08:11;;;;;;;10.83;9.90;;;9.60;99.90;;;;;;5053868;28;20195;-78
2023/10/04 06:10:38;;;;;;;9.20;8.13;;;9.60;99.90;;;;;;5051378;28;20227;-78
2023/10/04 06:13:11;;;;;;;7.57;5.10;;;9.70;99.90;;;;;;5043144;28;20549;-78
2023/10/04 06:15:41;;;;;;;8.67;5.60;;;9.80;99.90;;;;;;5045877;28;20196;-78
2023/10/04 06:18:11;;;;;;;6.10;5.30;;;9.90;99.90;;;;;;5053831;28;20649;-78
2023/10/04 06:20:40;;;;;;;6.77;6.07;;;9.90;99.90;;;;;;5049619;28;20226;-78
2023/10/04 06:23:09;;;;;;;6.23;5.60;;;10.00;99.90;;;;;;5054281;28;20219;-78
2023/10/04 06:25:40;;;;;;;9.27;6.37;;;10.00;99.90;;;;;;5047961;28;20215;-78
2023/10/04 06:28:08;;;;;;;7.37;6.33;;;10.10;99.90;;;;;;5052762;28;20209;-77
2023/10/04 06:30:35;;;;;;;7.80;7.03;;;10.10;99.90;;;;;;5052430;28;20219;-77
2023/10/04 06:33:05;;;;;;;6.87;5.60;;;10.20;99.90;;;;;;5048839;28;20565;-78
2023/10/04 06:35:33;;;;;;;5.90;5.30;;;10.30;99.90;;;;;;5053302;28;20195;-78
2023/10/04 06:38:01;;;;;;;4.10;3.70;;;10.40;99.90;;;;;;5048264;28;20196;-77
2023/10/04 06:40:31;;;;;;;9.17;8.37;;;10.50;99.90;;;;;;5065577;28;20220;-76
2023/10/04 06:42:59;;;;;;;5.23;4.37;;;10.60;99.90;;;;;;5039640;28;20194;-78
2023/10/04 06:45:27;;;;;;;5.73;4.57;;;10.70;99.90;;;;;;5039653;28;20247;-77
2023/10/04 06:47:55;;;;;;;5.63;4.37;;;10.80;99.90;;;;;;5048430;28;20611;-78
2023/10/04 06:50:28;;;;;;;4.73;4.00;;;10.90;99.90;;;;;;5041228;28;20199;-78
2023/10/04 06:52:56;;;;;;;9.13;8.33;;;11.00;99.90;;;;;;5038934;28;20219;-78
2023/10/04 06:55:23;;;;;;;6.03;4.60;;;11.10;99.90;;;;;;5038101;28;20200;-78
2023/10/04 06:57:50;;;;;;;6.80;4.10;;;11.30;99.90;;;;;;5036803;28;20603;-78
2023/10/04 07:00:19;;;;;;;5.97;3.90;;;11.50;99.90;;;;;;5036860;28;20224;-79
2023/10/04 07:02:48;;;;;;;5.57;3.80;;;11.70;99.90;;;;;;5042906;28;20240;-78
2023/10/04 07:05:18;;;;;;;9.33;8.43;;;11.90;99.90;;;;;;5040684;28;20219;-78
2023/10/04 07:07:47;;;;;;;8.83;7.93;;;12.20;99.90;;;;;;5041027;28;20268;-78
2023/10/04 07:10:15;;;;;;;7.07;3.87;;;12.50;99.90;;;;;;5041821;28;20199;-78
2023/10/04 07:12:44;;;;;;;8.33;4.70;;;12.90;99.90;;;;;;5045042;28;20644;-78
2023/10/04 07:15:12;;;;;;;8.80;8.10;;;13.30;99.90;;;;;;5049018;28;20203;-79
2023/10/04 07:17:40;;;;;;;7.27;6.67;;;13.60;99.90;;;;;;5052789;28;20233;-79
2023/10/04 07:20:13;;;;;;;4.73;3.63;;;13.90;99.90;;;;;;5048630;28;20288;-78
2023/10/04 07:22:40;;;;;;;6.53;3.83;;;14.10;99.90;;;;;;5034428;28;20215;-79
2023/10/04 07:25:09;;;;;;;6.47;3.90;;;14.30;99.90;;;;;;5036765;28;20216;-80
2023/10/04 07:27:36;;;;;;;6.83;4.30;;;14.60;99.90;;;;;;5039352;28;20677;-80
2023/10/04 07:30:04;;;;;;;4.90;3.73;;;15.10;99.90;;;;;;5041223;28;20199;-81
2023/10/04 07:32:31;;;;;;;9.43;8.53;;;15.40;99.90;;;;;;5017390;22;20316;-76
2023/10/04 07:34:58;;;;;;;7.80;4.90;;;15.80;99.90;;;;;;4991947;28;20194;-77
2023/10/04 07:37:25;;;;;;;5.30;3.53;;;16.20;99.90;;;;;;5008350;28;20255;-76
2023/10/04 07:39:53;;;;;;;6.20;3.53;;;16.60;99.90;;;;;;4994327;28;20203;-75
2023/10/04 07:42:22;;;;;;;4.90;3.53;;;16.80;99.90;;;;;;4988621;28;20221;-75
2023/10/04 07:44:49;;;;;;;6.83;6.17;;;17.00;99.90;;;;;;4994767;28;20204;-75
2023/10/04 07:47:15;;;;;;;5.80;5.20;;;17.20;99.90;;;;;;4994170;28;20221;-74
2023/10/04 07:49:42;;;;;;;7.00;6.30;;;17.30;99.90;;;;;;4992998;28;20201;-74
2023/10/04 07:52:09;;;;;;;4.60;3.60;;;17.40;99.90;;;;;;4996483;28;20248;-74
2023/10/04 07:54:37;;;;;;;4.67;3.13;;;17.60;99.90;;;;;;4995522;28;20253;-74
2023/10/04 07:57:04;;;;;;;8.60;7.90;;;17.90;99.90;;;;;;4996249;28;20200;-77
2023/10/04 07:59:32;;;;;;;7.47;6.90;;;18.10;99.90;;;;;;4993202;28;20197;-76
2023/10/04 08:01:59;;;;;;;5.43;4.93;;;18.30;99.90;;;;;;4993368;28;20230;-74
2023/10/04 08:04:26;;;;;;;8.23;7.53;;;18.50;99.90;;;;;;4993391;28;20265;-72
2023/10/04 08:06:53;;;;;;;8.50;7.67;;;18.60;99.90;;;;;;4993636;28;20238;-74
2023/10/04 08:09:21;;;;;;;4.57;3.33;;;18.60;99.90;;;;;;4995776;28;20193;-74
2023/10/04 08:11:50;;;;;;;4.87;3.40;;;18.90;99.90;;;;;;4996243;28;20220;-77
2023/10/04 08:14:21;;;;;;;8.50;7.63;;;19.10;99.90;;;;;;5001183;28;20204;-76
2023/10/04 08:16:50;;;;;;;5.30;3.73;;;19.20;99.90;;;;;;4995132;28;20213;-76
2023/10/04 08:19:17;;;;;;;3.90;3.23;;;19.50;99.90;;;;;;5006845;28;20207;-74
2023/10/04 08:21:45;;;;;;;4.40;3.10;;;19.70;99.90;;;;;;4994338;28;20221;-74
2023/10/04 08:24:11;;;;;;;5.80;3.70;;;19.80;99.90;;;;;;4995911;28;20664;-73
2023/10/04 08:26:38;;;;;;;4.40;3.23;;;19.70;99.90;;;;;;4995690;28;20209;-74
2023/10/04 08:29:06;;;;;;;6.40;4.77;;;19.70;99.90;;;;;;4995976;28;20200;-74
2023/10/04 08:31:33;;;;;;;4.87;3.77;;;19.80;99.90;;;;;;4995970;28;20271;-74
2023/10/04 08:34:02;;;;;;;6.40;4.33;;;19.90;99.90;;;;;;4998024;28;20213;-74
2023/10/04 08:36:29;;;;;;;7.93;7.20;;;19.90;99.90;;;;;;4997948;28;20185;-73
2023/10/04 08:38:56;;;;;;;4.30;3.40;;;19.90;99.90;;;;;;5002960;28;20224;-73
2023/10/04 08:41:23;;;;;;;3.97;3.20;;;20.00;99.90;;;;;;5006320;28;20221;-74
2023/10/04 08:43:51;;;;;;;7.37;6.77;;;20.10;99.90;;;;;;4996528;28;20189;-75
2023/10/04 08:46:19;;;;;;;8.10;7.47;;;20.10;99.90;;;;;;4995649;28;20217;-74
2023/10/04 08:48:53;;;;;;;4.63;3.27;;;20.10;99.90;;;;;;4995003;28;20691;-74
2023/10/04 08:51:34;;;;;;;7.30;3.70;;;20.20;99.90;;;;;;4997337;28;20263;-74
2023/10/04 08:54:12;;;;;;;4.10;3.10;;;20.20;99.90;;;;;;4996809;28;20193;-75
2023/10/04 08:56:45;;;;;;;4.37;3.03;;;20.40;99.90;;;;;;4999759;28;20197;-80
2023/10/04 08:59:12;;;;;;;3.97;2.97;;;20.50;99.90;;;;;;4999371;28;20205;-77
2023/10/04 09:01:40;;;;;;;4.03;2.70;;;20.70;99.90;;;;;;4998911;28;20205;-78
2023/10/04 09:04:08;;;;;;;5.50;3.00;;;20.80;99.90;;;;;;5000477;28;20201;-79
2023/10/04 09:06:38;;;;;;;5.23;3.93;;;20.80;99.90;;;;;;4999994;28;20225;-77
2023/10/04 09:09:06;;;;;;;4.20;2.93;;;20.50;99.90;;;;;;4994284;28;20209;-79
2023/10/04 09:11:33;;;;;;;5.60;3.47;;;20.60;99.90;;;;;;4998864;28;20221;-75
2023/10/04 09:14:00;;;;;;;4.30;2.77;;;20.80;99.90;;;;;;5000342;28;20198;-77
2023/10/04 09:16:28;;;;;;;4.50;2.40;;;21.00;99.90;;;;;;5000039;28;20664;-75
2023/10/04 09:19:08;;;;;;;6.60;5.97;;;20.90;99.90;;;;;;4998419;28;20201;-78
2023/10/04 09:21:38;;;;;;;6.13;3.70;;;21.10;99.90;;;;;;4992443;28;20213;-78
2023/10/04 09:24:08;;;;;;;4.77;2.53;;;21.10;99.90;;;;;;4994767;28;20224;-75
2023/10/04 09:26:36;;;;;;;6.07;3.10;;;21.20;99.90;;;;;;4994583;28;20241;-74
2023/10/04 09:29:04;;;;;;;4.27;2.40;;;21.00;99.90;;;;;;4996982;28;20193;-74
2023/10/04 09:31:31;;;;;;;2.97;2.30;;;21.00;99.90;;;;;;4997367;28;20715;-74
2023/10/04 09:34:13;;;;;;;4.17;2.50;;;21.00;99.90;;;;;;4996405;28;20198;-74
2023/10/04 09:36:42;;;;;;;4.97;4.07;;;21.00;99.90;;;;;;4996165;28;20217;-75
2023/10/04 09:39:13;;;;;;;4.87;3.87;;;20.90;99.90;;;;;;5006016;28;20672;-75
2023/10/04 09:41:41;;;;;;;3.70;2.50;;;20.70;99.90;;;;;;4997814;28;20209;-74
2023/10/04 09:44:20;;;;;;;3.77;2.60;;;20.60;99.90;;;;;;4998608;28;20389;-74
2023/10/04 09:46:48;;;;;;;3.90;2.60;;;20.60;99.90;;;;;;4997193;28;20225;-74
2023/10/04 09:49:16;;;;;;;3.70;2.60;;;20.50;99.90;;;;;;4997999;28;20205;-74
2023/10/04 09:51:46;;;;;;;5.10;2.60;;;20.30;99.90;;;;;;4999042;28;20225;-74
2023/10/04 09:54:14;;;;;;;3.37;2.70;;;20.20;99.90;;;;;;4997337;28;20679;-74
2023/10/04 09:56:42;;;;;;;4.60;4.20;;;20.20;99.90;;;;;;4997689;28;20679;-74
2023/10/04 09:59:11;;;;;;;3.67;3.27;;;20.20;99.90;;;;;;4997322;28;20197;-74
2023/10/04 10:01:40;;;;;;;5.23;4.00;;;20.10;99.90;;;;;;4995724;28;20221;-74
2023/10/04 10:04:14;;;;;;;4.53;4.17;;;19.90;99.90;;;;;;4993882;28;20193;-74
2023/10/04 10:07:00;;;;;;;4.27;2.70;;;20.00;99.90;;;;;;4994023;28;20216;-75
2023/10/04 10:09:30;;;;;;;7.43;6.83;;;20.00;99.90;;;;;;4994770;28;20282;-74
2023/10/04 10:11:59;;;;;;;6.83;6.27;;;19.70;99.90;;;;;;4994263;28;20221;-74
2023/10/04 10:14:28;;;;;;;6.93;6.33;;;19.60;99.90;;;;;;4993353;28;20188;-75
2023/10/04 10:16:56;;;;;;;7.03;6.53;;;19.30;99.90;;;;;;4993813;28;20313;-74
2023/10/04 10:19:25;;;;;;;6.83;6.30;;;19.30;99.90;;;;;;4994267;28;20197;-74
2023/10/04 10:22:10;;;;;;;5.73;5.23;;;19.30;99.90;;;;;;4992453;28;20287;-74
2023/10/04 10:24:44;;;;;;;7.63;6.93;;;19.40;99.90;;;;;;4993824;28;20668;-74
2023/10/04 10:27:13;;;;;;;4.40;2.60;;;19.40;99.90;;;;;;4993814;28;20244;-73
2023/10/04 10:29:41;;;;;;;7.87;5.20;;;19.00;99.90;;;;;;4991789;28;20205;-74
2023/10/04 10:32:15;;;;;;;7.27;6.57;;;18.90;99.90;;;;;;4989665;28;20228;-74
2023/10/04 10:34:43;;;;;;;5.67;5.17;;;18.90;99.90;;;;;;4992733;28;20648;-74
2023/10/04 10:37:17;;;;;;;5.63;4.40;;;18.90;99.90;;;;;;4992564;28;20199;-74
2023/10/04 10:39:45;;;;;;;4.23;2.77;;;18.90;99.90;;;;;;4991934;28;20210;-74
2023/10/04 10:42:13;;;;;;;3.40;2.57;;;18.80;99.90;;;;;;4998980;28;20216;-73
2023/10/04 10:44:40;;;;;;;3.07;2.43;;;18.70;99.90;;;;;;4999495;28;20212;-73
2023/10/04 10:47:22;;;;;;;3.50;2.67;;;18.80;99.90;;;;;;4994434;28;20216;-73
2023/10/04 10:49:52;;;;;;;6.07;5.47;;;18.80;99.90;;;;;;4997650;28;20246;-76
2023/10/04 10:52:33;;;;;;;6.97;6.37;;;18.90;99.90;;;;;;4999455;28;20229;-76
2023/10/04 10:55:04;;;;;;;7.27;6.67;;;18.80;99.90;;;;;;4996093;28;20231;-76
2023/10/04 10:57:32;;;;;;;7.57;6.87;;;18.60;99.90;;;;;;4999322;28;20192;-76
2023/10/04 11:00:07;;;;;;;6.73;5.87;;;18.60;99.90;;;;;;4996333;28;20216;-77
2023/10/04 11:02:34;;;;;;;7.17;6.50;;;18.60;99.90;;;;;;4997313;28;20219;-76
2023/10/04 11:05:01;;;;;;;6.80;6.20;;;18.50;99.90;;;;;;4998616;28;20201;-75
2023/10/04 11:07:29;;;;;;;6.90;6.30;;;18.40;99.90;;;;;;4998050;28;20223;-76
2023/10/04 11:09:58;;;;;;;6.90;6.30;;;18.50;99.90;;;;;;4997276;28;20226;-76
2023/10/04 11:12:26;;;;;;;6.90;6.30;;;18.30;99.90;;;;;;5003808;28;20219;-75
2023/10/04 11:14:54;;;;;;;6.20;5.70;;;18.30;99.90;;;;;;4995769;28;20294;-76
2023/10/04 11:17:21;;;;;;;2.80;2.10;;;18.30;99.90;;;;;;4997576;28;20194;-76
2023/10/04 11:19:50;;;;;;;4.77;2.57;;;18.20;99.90;;;;;;4997156;28;20203;-76
2023/10/04 11:22:19;;;;;;;6.20;5.57;;;18.00;99.90;;;;;;4997528;28;20227;-76
2023/10/04 11:24:48;;;;;;;6.50;6.00;;;18.00;99.90;;;;;;4996542;28;20201;-75
2023/10/04 11:27:20;;;;;;;3.87;2.43;;;18.00;99.90;;;;;;4998708;28;20206;-75
2023/10/04 11:29:49;;;;;;;3.40;2.50;;;18.00;99.90;;;;;;4997567;28;20244;-76
2023/10/04 11:32:17;;;;;;;3.07;2.27;;;17.90;99.90;;;;;;4997922;28;20227;-76
2023/10/04 11:34:45;;;;;;;4.40;2.43;;;18.00;99.90;;;;;;5001345;28;20204;-76
2023/10/04 11:37:13;;;;;;;3.77;3.43;;;18.20;99.90;;;;;;4993773;28;20655;-76
2023/10/04 11:39:40;;;;;;;4.80;3.50;;;18.20;99.90;;;;;;4997796;28;20195;-76
2023/10/04 11:42:21;;;;;;;3.33;2.90;;;18.20;99.90;;;;;;4997518;28;20489;-76
2023/10/04 11:44:48;;;;;;;2.77;2.50;;;18.10;99.90;;;;;;4994040;28;20205;-74
2023/10/04 11:47:26;;;;;;;2.73;2.40;;;18.00;99.90;;;;;;4994186;28;20287;-74
2023/10/04 11:49:58;;;;;;;3.00;2.43;;;18.00;99.90;;;;;;4991708;28;20202;-74
2023/10/04 11:52:30;;;;;;;2.90;2.60;;;17.90;99.90;;;;;;4992716;28;20217;-74
2023/10/04 11:54:56;;;;;;;3.90;2.57;;;17.80;99.90;;;;;;4991536;28;20198;-74
2023/10/04 11:57:31;;;;;;;3.73;2.93;;;17.80;99.90;;;;;;4991568;28;20193;-74
2023/10/04 12:00:16;;;;;;;4.00;3.60;;;17.80;99.90;;;;;;4991341;28;20584;-74
2023/10/04 12:02:43;;;;;;;6.23;5.63;;;17.70;99.90;;;;;;4993034;28;20305;-74
2023/10/04 12:05:11;;;;;;;6.40;5.80;;;17.70;99.90;;;;;;4992348;28;20241;-74
2023/10/04 12:07:38;;;;;;;6.20;5.70;;;17.60;99.90;;;;;;4994495;28;20217;-73
2023/10/04 12:10:06;;;;;;;6.57;6.07;;;17.60;99.90;;;;;;4994917;28;20197;-74
2023/10/04 12:12:34;;;;;;;6.93;6.43;;;17.50;99.90;;;;;;4996388;28;20241;-77
2023/10/04 12:15:07;;;;;;;6.40;5.90;;;17.60;99.90;;;;;;4999189;28;20201;-76
2023/10/04 12:17:34;;;;;;;5.90;5.50;;;17.60;99.90;;;;;;4999231;28;20193;-74
2023/10/04 12:20:04;;;;;;;5.73;5.33;;;17.60;99.90;;;;;;4997041;28;20209;-74
2023/10/04 12:22:31;;;;;;;6.10;5.70;;;17.60;99.90;;;;;;4995883;28;20404;-74
2023/10/04 12:24:59;;;;;;;6.23;5.73;;;17.60;99.90;;;;;;4996530;28;20201;-74
2023/10/04 12:27:27;;;;;;;6.50;5.90;;;17.60;99.90;;;;;;4996374;28;20272;-74
2023/10/04 12:29:56;;;;;;;7.00;6.50;;;17.50;99.90;;;;;;4994329;28;20229;-74
2023/10/04 12:32:23;;;;;;;7.23;6.67;;;17.60;99.90;;;;;;4994791;28;20229;-74
2023/10/04 12:34:50;;;;;;;6.87;6.37;;;17.50;99.90;;;;;;4996350;28;20662;-74
2023/10/04 12:37:17;;;;;;;6.63;6.17;;;17.40;99.90;;;;;;4995952;28;20204;-73
2023/10/04 12:39:44;;;;;;;6.10;5.70;;;17.40;99.90;;;;;;4995219;28;20423;-74
2023/10/04 12:42:11;;;;;;;6.10;5.60;;;17.40;99.90;;;;;;4994831;28;20235;-74
2023/10/04 12:44:38;;;;;;;6.73;6.23;;;17.40;99.90;;;;;;4994691;28;20677;-74
2023/10/04 12:47:08;;;;;;;8.57;7.97;;;17.40;99.90;;;;;;4994415;28;20299;-74
2023/10/04 12:49:34;;;;;;;7.10;6.57;;;17.40;99.90;;;;;;4993882;28;20201;-74
2023/10/04 12:52:04;;;;;;;6.50;6.00;;;17.30;99.90;;;;;;4993685;28;20329;-74
2023/10/04 12:54:31;;;;;;;5.93;5.53;;;17.40;99.90;;;;;;4994788;28;20212;-74
2023/10/04 12:56:57;;;;;;;6.33;5.73;;;17.40;99.90;;;;;;4993552;28;20586;-74